Time;durP1;ratioP1;P1;durP2;ratioP2;P2;SDS_P1;SDS_P2;PMS_P1;PMS_P2;Temp;Humidity;BMP_temperature;BMP_pressure;BME280_temperature;BME280_humidity;BME280_pressure;Samples;Min_cycle;Max_cycle;Signal;HPM_P1;HPM_P2
2023/09/12 00:01:08;;;;;;;11.20;7.25;;;538.10;2406.40;;;;;;4955020;29;20098;-81
2023/09/12 00:03:34;;;;;;;11.70;6.78;;;538.10;2406.40;;;;;;4955289;29;20027;-78
2023/09/12 00:06:01;;;;;;;14.30;7.72;;;538.20;2406.40;;;;;;4938050;29;20030;-78
2023/09/12 00:08:27;;;;;;;10.63;6.57;;;538.10;2406.40;;;;;;4955413;29;20042;-77
2023/09/12 00:11:10;;;;;;;14.32;7.78;;;538.10;2406.40;;;;;;4954889;29;20087;-78
2023/09/12 00:13:38;;;;;;;10.25;7.07;;;538.00;2406.40;;;;;;4955333;29;20058;-78
2023/09/12 00:16:05;;;;;;;15.70;7.78;;;537.90;2406.40;;;;;;4955254;29;20031;-77
2023/09/12 00:18:31;;;;;;;15.18;8.23;;;537.90;2406.40;;;;;;4937995;29;20070;-80
2023/09/12 00:20:59;;;;;;;13.75;7.78;;;537.90;2406.40;;;;;;4937719;29;20031;-79
2023/09/12 00:23:25;;;;;;;10.38;7.30;;;538.00;2406.40;;;;;;4953419;29;20039;-77
2023/09/12 00:25:53;;;;;;;13.20;8.15;;;538.00;2406.40;;;;;;4955169;29;20070;-78
2023/09/12 00:28:20;;;;;;;13.07;7.82;;;538.10;2406.40;;;;;;4953650;29;20027;-78
2023/09/12 00:30:46;;;;;;;13.73;8.30;;;538.00;2406.40;;;;;;4955076;29;20047;-80
2023/09/12 00:33:12;;;;;;;11.85;7.90;;;538.20;2406.40;;;;;;4954907;29;20022;-77
2023/09/12 00:35:38;;;;;;;12.38;8.75;;;538.20;2406.40;;;;;;4942402;29;20027;-78
2023/09/12 00:38:04;;;;;;;12.50;8.35;;;538.20;2406.40;;;;;;4947314;29;20109;-78
2023/09/12 00:40:29;;;;;;;15.18;7.90;;;538.20;2406.40;;;;;;4941012;29;20383;-77
2023/09/12 00:42:56;;;;;;;15.15;8.02;;;538.10;2406.40;;;;;;4937645;29;20035;-80
2023/09/12 00:45:21;;;;;;;15.45;9.38;;;538.20;2406.40;;;;;;4942225;29;20107;-78
2023/09/12 00:47:49;;;;;;;17.92;8.60;;;538.10;2406.40;;;;;;4937643;29;20114;-78
2023/09/12 00:50:16;;;;;;;19.88;9.00;;;538.10;2406.40;;;;;;4937850;29;20030;-79
2023/09/12 00:52:43;;;;;;;16.48;8.05;;;538.10;2406.40;;;;;;4954624;29;20034;-78
2023/09/12 00:55:09;;;;;;;16.25;9.00;;;538.00;2406.40;;;;;;4954693;29;20579;-78
2023/09/12 00:57:36;;;;;;;17.17;8.25;;;538.00;2406.40;;;;;;4954720;29;20024;-79
2023/09/12 01:00:10;;;;;;;12.50;7.97;;;538.00;2406.40;;;;;;4954988;29;20053;-77
2023/09/12 01:02:42;;;;;;;13.80;8.38;;;537.80;2406.40;;;;;;4937540;29;20565;-79
2023/09/12 01:05:08;;;;;;;15.93;7.53;;;537.80;2406.40;;;;;;4955632;28;20102;-78
2023/09/12 01:07:36;;;;;;;12.82;8.43;;;537.70;2406.40;;;;;;4957935;29;20119;-78
2023/09/12 01:10:02;;;;;;;14.80;8.02;;;537.70;2406.40;;;;;;4941095;29;20039;-78
2023/09/12 01:12:29;;;;;;;12.68;7.85;;;538.20;2406.40;;;;;;4941022;29;20023;-82
2023/09/12 01:14:55;;;;;;;11.23;7.47;;;537.60;2406.40;;;;;;4941360;29;20019;-79
2023/09/12 01:17:21;;;;;;;17.27;8.20;;;537.60;2406.40;;;;;;4958195;29;20034;-76
2023/09/12 01:19:48;;;;;;;12.80;7.50;;;512.90;2380.80;;;;;;4940912;29;20031;-77
2023/09/12 01:22:40;;;;;;;13.60;7.80;;;537.60;2406.40;;;;;;4940793;29;20059;-78
2023/09/12 01:25:43;;;;;;;12.77;7.82;;;537.60;2406.40;;;;;;4940650;29;20503;-77
2023/09/12 01:28:10;;;;;;;15.77;7.38;;;537.60;2406.40;;;;;;4958123;29;20054;-77
2023/09/12 01:30:38;;;;;;;14.35;6.47;;;512.90;2380.80;;;;;;4940397;29;20035;-77
2023/09/12 01:33:04;;;;;;;14.90;8.27;;;512.90;2380.80;;;;;;4946164;29;20034;-77
2023/09/12 01:35:29;;;;;;;11.40;7.38;;;512.70;2380.80;;;;;;4956574;29;20456;-76
2023/09/12 01:37:55;;;;;;;16.20;8.00;;;512.80;2380.80;;;;;;4958018;29;20035;-78
2023/09/12 01:40:33;;;;;;;11.93;7.40;;;512.80;2380.80;;;;;;4942427;29;20023;-78
2023/09/12 01:43:00;;;;;;;18.00;7.95;;;512.90;2380.80;;;;;;4957349;29;20054;-81
2023/09/12 01:45:27;;;;;;;12.40;9.25;;;512.80;2380.80;;;;;;4940645;29;20024;-77
2023/09/12 01:47:54;;;;;;;14.85;8.23;;;512.90;2380.80;;;;;;4940021;29;20035;-78
2023/09/12 01:50:20;;;;;;;11.63;6.93;;;512.90;2380.80;;;;;;4957419;29;20028;-77
2023/09/12 01:52:47;;;;;;;21.13;8.38;;;512.80;2380.80;;;;;;4940322;29;20038;-77
2023/09/12 01:55:14;;;;;;;17.13;8.75;;;512.90;2380.80;;;;;;4957557;29;20034;-77
2023/09/12 01:57:40;;;;;;;14.73;8.10;;;512.90;2380.80;;;;;;4939885;29;20027;-77
2023/09/12 02:00:07;;;;;;;14.00;7.55;;;512.90;2380.80;;;;;;4939681;29;20035;-78
2023/09/12 02:02:33;;;;;;;17.42;7.93;;;512.90;2380.80;;;;;;4957121;29;20031;-77
2023/09/12 02:05:28;;;;;;;14.55;9.23;;;512.90;2380.80;;;;;;4957653;29;20460;-79
2023/09/12 02:07:54;;;;;;;18.90;8.57;;;512.90;2380.80;;;;;;4940097;29;20038;-77
2023/09/12 02:10:20;;;;;;;19.80;9.40;;;537.60;2406.40;;;;;;4957092;29;20023;-77
2023/09/12 02:12:45;;;;;;;18.40;8.93;;;537.60;2406.40;;;;;;4941870;29;20074;-79
2023/09/12 02:15:12;;;;;;;22.58;9.27;;;537.60;2406.40;;;;;;4957363;29;20027;-78
2023/09/12 02:17:38;;;;;;;15.52;8.88;;;537.70;2406.40;;;;;;4956941;28;20027;-79
2023/09/12 02:20:09;;;;;;;21.02;9.43;;;537.60;2406.40;;;;;;4957289;29;20019;-78
2023/09/12 02:22:34;;;;;;;22.73;9.50;;;537.70;2406.40;;;;;;4939614;29;20039;-77
2023/09/12 02:25:00;;;;;;;20.40;8.88;;;537.80;2406.40;;;;;;4956930;29;20546;-77
2023/09/12 02:27:26;;;;;;;12.00;8.40;;;537.70;2406.40;;;;;;4939720;29;20054;-77
2023/09/12 02:29:51;;;;;;;14.00;7.85;;;537.80;2406.40;;;;;;4955913;29;20060;-79
2023/09/12 02:32:17;;;;;;;16.70;8.07;;;537.80;2406.40;;;;;;4939592;29;20032;-77
2023/09/12 02:34:43;;;;;;;19.92;7.72;;;537.70;2406.40;;;;;;4956953;29;20031;-78
2023/09/12 02:37:08;;;;;;;17.15;8.48;;;537.70;2406.40;;;;;;4956792;29;20491;-80
2023/09/12 02:39:34;;;;;;;15.77;8.38;;;537.60;2406.40;;;;;;4938978;29;20039;-77
2023/09/12 02:42:00;;;;;;;15.68;7.65;;;537.70;2406.40;;;;;;4951196;29;20050;-78
2023/09/12 02:44:25;;;;;;;14.60;8.40;;;537.60;2406.40;;;;;;4932376;29;20041;-78
2023/09/12 02:46:51;;;;;;;21.60;8.73;;;512.90;2380.80;;;;;;4956671;29;20026;-78
2023/09/12 02:49:17;;;;;;;17.63;8.20;;;512.90;2380.80;;;;;;4956781;29;20113;-76
2023/09/12 02:51:43;;;;;;;13.45;7.90;;;512.90;2380.80;;;;;;4956602;29;20030;-77
2023/09/12 02:54:08;;;;;;;13.95;8.15;;;512.80;2380.80;;;;;;4956603;29;20038;-80
2023/09/12 02:56:34;;;;;;;15.10;8.13;;;512.70;2380.80;;;;;;4938951;29;20531;-79
2023/09/12 02:59:00;;;;;;;12.30;7.30;;;512.60;2380.80;;;;;;4939091;29;20118;-77
2023/09/12 03:01:27;;;;;;;16.30;7.65;;;512.40;2380.80;;;;;;4956151;29;20463;-77
2023/09/12 03:03:54;;;;;;;13.02;7.55;;;512.60;2380.80;;;;;;4938377;29;20419;-79
2023/09/12 03:06:20;;;;;;;17.13;8.75;;;512.40;2380.80;;;;;;4956301;29;20053;-77
2023/09/12 03:08:46;;;;;;;15.77;8.73;;;512.40;2380.80;;;;;;4939237;29;20031;-77
2023/09/12 03:11:12;;;;;;;19.85;8.75;;;512.30;2380.80;;;;;;4938629;29;20035;-77
2023/09/12 03:13:40;;;;;;;28.48;10.10;;;512.20;2380.80;;;;;;4956154;29;20111;-76
2023/09/12 03:16:10;;;;;;;15.57;9.63;;;512.10;2380.80;;;;;;4938963;29;20038;-80
2023/09/12 03:18:35;;;;;;;16.83;7.97;;;512.00;2380.80;;;;;;4938778;29;20027;-77
2023/09/12 03:21:01;;;;;;;20.30;8.30;;;512.00;2380.80;;;;;;4956035;29;20497;-77
2023/09/12 03:23:27;;;;;;;16.67;8.45;;;487.30;2380.80;;;;;;4955363;29;20039;-77
2023/09/12 03:25:53;;;;;;;16.88;7.80;;;487.30;2380.80;;;;;;4938114;29;20520;-76
2023/09/12 03:28:18;;;;;;;18.55;8.82;;;487.20;2380.80;;;;;;4936900;29;20407;-76
2023/09/12 03:30:44;;;;;;;14.85;7.95;;;487.30;2380.80;;;;;;4955092;29;20027;-77
2023/09/12 03:33:10;;;;;;;14.32;7.78;;;487.30;2380.80;;;;;;4953774;29;20476;-77
2023/09/12 03:35:36;;;;;;;16.02;9.07;;;487.30;2380.80;;;;;;4955063;29;20031;-77
2023/09/12 03:38:02;;;;;;;15.40;7.65;;;487.20;2380.80;;;;;;4955003;29;20513;-77
2023/09/12 03:40:31;;;;;;;22.08;8.93;;;487.00;2380.80;;;;;;4937487;29;20086;-77
2023/09/12 03:42:57;;;;;;;16.17;8.35;;;486.80;2380.80;;;;;;4937486;29;20062;-79
2023/09/12 03:45:24;;;;;;;15.27;8.25;;;486.70;2380.80;;;;;;4954776;29;20023;-76
2023/09/12 03:47:49;;;;;;;12.48;7.55;;;486.60;2380.80;;;;;;4954441;29;20082;-79
2023/09/12 03:50:15;;;;;;;16.25;8.70;;;486.60;2380.80;;;;;;4937122;29;20031;-77
2023/09/12 03:52:41;;;;;;;13.73;7.40;;;486.50;2380.80;;;;;;4954310;29;20455;-78
2023/09/12 03:55:07;;;;;;;15.23;8.02;;;461.70;2380.80;;;;;;4937668;29;20055;-76
2023/09/12 03:57:33;;;;;;;16.67;8.00;;;461.60;2380.80;;;;;;4937615;29;20065;-78
2023/09/12 03:59:58;;;;;;;13.35;9.10;;;461.50;2380.80;;;;;;4941922;29;20058;-77
2023/09/12 04:02:24;;;;;;;19.92;6.82;;;461.50;2380.80;;;;;;4954581;29;20036;-78
2023/09/12 04:04:51;;;;;;;15.00;7.68;;;461.50;2380.80;;;;;;4937632;29;20110;-78
2023/09/12 04:07:17;;;;;;;14.48;7.75;;;461.40;2380.80;;;;;;4937286;29;20506;-77
2023/09/12 04:09:43;;;;;;;14.93;7.82;;;461.40;2380.80;;;;;;4954613;29;20066;-80
2023/09/12 04:12:09;;;;;;;14.38;8.63;;;461.20;2380.80;;;;;;4936960;29;20043;-76
2023/09/12 04:14:35;;;;;;;13.38;7.28;;;461.40;2380.80;;;;;;4954047;29;20027;-77
2023/09/12 04:17:02;;;;;;;16.90;8.80;;;461.40;2380.80;;;;;;4953899;29;20034;-76
2023/09/12 04:19:27;;;;;;;15.32;7.78;;;461.40;2380.80;;;;;;4954415;29;20372;-79
2023/09/12 04:21:53;;;;;;;14.07;8.07;;;461.50;2380.80;;;;;;4954393;29;20031;-78
2023/09/12 04:24:19;;;;;;;14.82;8.73;;;461.60;2380.80;;;;;;4881942;29;1267280;-77
2023/09/12 04:26:45;;;;;;;21.08;10.52;;;461.60;2380.80;;;;;;4954788;29;20055;-77
2023/09/12 04:29:11;;;;;;;19.00;10.10;;;461.70;2380.80;;;;;;4954901;29;20063;-77
2023/09/12 04:31:36;;;;;;;20.02;9.55;;;461.50;2380.80;;;;;;4937653;29;20043;-77
2023/09/12 04:34:02;;;;;;;21.58;11.68;;;461.50;2380.80;;;;;;4955295;29;20035;-77
2023/09/12 04:36:28;;;;;;;21.02;11.25;;;461.50;2380.80;;;;;;4937864;29;20031;-77
2023/09/12 04:38:54;;;;;;;25.63;11.32;;;461.50;2380.80;;;;;;4955337;28;20111;-76
2023/09/12 04:41:19;;;;;;;24.30;11.15;;;461.50;2380.80;;;;;;4957746;29;20034;-78
2023/09/12 04:43:45;;;;;;;19.55;11.95;;;461.50;2380.80;;;;;;4941006;29;20122;-78
2023/09/12 04:46:11;;;;;;;27.77;12.30;;;461.50;2380.80;;;;;;4941571;29;20400;-77
2023/09/12 04:48:37;;;;;;;23.55;12.68;;;461.50;2380.80;;;;;;4958847;29;20063;-78
2023/09/12 04:51:03;;;;;;;27.45;14.18;;;461.40;2380.80;;;;;;4958418;29;20027;-79
2023/09/12 04:53:34;;;;;;;25.70;13.32;;;461.40;2380.80;;;;;;4933781;29;20042;-77
2023/09/12 04:56:04;;;;;;;21.85;11.65;;;461.40;2380.80;;;;;;4953880;29;20028;-77
2023/09/12 04:58:30;;;;;;;40.08;14.43;;;461.30;2380.80;;;;;;4958457;28;20027;-77
2023/09/12 05:00:56;;;;;;;25.75;12.65;;;461.30;2380.80;;;;;;4941184;29;20034;-77
2023/09/12 05:03:22;;;;;;;29.80;13.98;;;461.20;2380.80;;;;;;4956169;29;20129;-77
2023/09/12 05:05:49;;;;;;;29.38;14.48;;;461.20;2380.80;;;;;;4929220;29;20480;-78
2023/09/12 05:08:15;;;;;;;25.75;13.07;;;461.20;2380.80;;;;;;4945738;29;20461;-76
2023/09/12 05:10:43;;;;;;;27.95;12.75;;;461.10;2380.80;;;;;;4951073;29;20098;-78
2023/09/12 05:13:09;;;;;;;22.33;12.13;;;461.00;2380.80;;;;;;4948623;28;20480;-76
2023/09/12 05:15:36;;;;;;;24.25;12.35;;;461.00;2380.80;;;;;;4951202;29;20086;-76
2023/09/12 05:18:02;;;;;;;22.83;13.00;;;461.10;2380.80;;;;;;4952465;29;20019;-76
2023/09/12 05:20:28;;;;;;;24.83;12.05;;;461.20;2380.80;;;;;;4946692;29;20027;-76
2023/09/12 05:22:54;;;;;;;25.70;11.82;;;461.40;2380.80;;;;;;4935605;29;20516;-76
2023/09/12 05:25:19;;;;;;;32.25;12.77;;;461.50;2380.80;;;;;;4945321;29;20079;-76
2023/09/12 05:27:45;;;;;;;26.13;12.48;;;461.70;2380.80;;;;;;4954162;29;20027;-76
2023/09/12 05:30:11;;;;;;;24.95;12.60;;;486.40;2380.80;;;;;;4955463;29;20019;-77
2023/09/12 05:32:37;;;;;;;22.00;10.88;;;486.50;2380.80;;;;;;4944409;29;20028;-75
2023/09/12 05:35:04;;;;;;;25.35;11.32;;;486.60;2380.80;;;;;;4941126;29;20024;-77
2023/09/12 05:37:30;;;;;;;20.23;10.38;;;486.70;2380.80;;;;;;4943490;29;20027;-76
2023/09/12 05:39:55;;;;;;;19.17;10.60;;;486.70;2380.80;;;;;;4943430;29;20024;-76
2023/09/12 05:42:22;;;;;;;26.33;11.20;;;486.70;2380.80;;;;;;4933155;29;20047;-77
2023/09/12 05:44:49;;;;;;;22.08;10.75;;;486.80;2380.80;;;;;;4951398;29;20019;-78
2023/09/12 05:47:15;;;;;;;24.70;10.07;;;487.10;2380.80;;;;;;4928812;29;20027;-75
2023/09/12 05:49:41;;;;;;;16.75;9.38;;;487.20;2380.80;;;;;;4952954;29;20023;-75
2023/09/12 05:52:07;;;;;;;14.15;8.73;;;512.00;2380.80;;;;;;4955621;28;20066;-75
2023/09/12 05:54:33;;;;;;;17.67;7.90;;;512.20;2380.80;;;;;;4951081;29;20027;-77
2023/09/12 05:56:59;;;;;;;14.38;7.78;;;512.30;2380.80;;;;;;4936003;29;20039;-76
2023/09/12 05:59:24;;;;;;;15.30;7.70;;;512.50;2380.80;;;;;;4946077;29;20028;-76
2023/09/12 06:01:52;;;;;;;16.35;7.82;;;512.70;2380.80;;;;;;4941181;29;20532;-77
2023/09/12 06:04:17;;;;;;;12.20;7.35;;;512.80;2380.80;;;;;;4955131;29;20039;-75
2023/09/12 06:06:43;;;;;;;12.38;6.97;;;512.90;2380.80;;;;;;4954734;29;20024;-78
2023/09/12 06:09:09;;;;;;;15.75;7.25;;;537.70;2406.40;;;;;;4938307;29;20468;-77
2023/09/12 06:11:35;;;;;;;14.13;7.28;;;537.90;2406.40;;;;;;4944923;29;20366;-76
2023/09/12 06:14:00;;;;;;;13.90;6.82;;;538.00;2406.40;;;;;;4933294;29;20031;-77
2023/09/12 06:16:26;;;;;;;15.60;6.80;;;538.10;2406.40;;;;;;4949078;29;20039;-81
2023/09/12 06:18:53;;;;;;;13.50;6.78;;;538.30;2406.40;;;;;;4953644;29;20055;-78
2023/09/12 06:21:21;;;;;;;21.15;7.43;;;538.50;2406.40;;;;;;4932826;29;20031;-77
2023/09/12 06:23:47;;;;;;;12.75;7.05;;;538.50;2406.40;;;;;;4927712;29;20048;-77
2023/09/12 06:26:13;;;;;;;18.55;7.03;;;563.40;2432.00;;;;;;4950350;29;20032;-79
2023/09/12 06:28:38;;;;;;;16.50;6.90;;;563.50;2432.00;;;;;;4937413;29;20086;-76
2023/09/12 06:31:08;;;;;;;14.32;6.88;;;563.70;2432.00;;;;;;4946668;29;20107;-73
2023/09/12 06:33:34;;;;;;;20.98;7.20;;;563.80;2432.00;;;;;;4930331;29;20031;-75
2023/09/12 06:36:00;;;;;;;20.05;6.85;;;564.00;2432.00;;;;;;4943481;29;20349;-76
2023/09/12 06:38:25;;;;;;;15.95;6.65;;;564.10;2432.00;;;;;;4934937;29;20035;-76
2023/09/12 06:40:51;;;;;;;20.83;7.53;;;589.00;2432.00;;;;;;4944179;29;20465;-76
2023/09/12 06:43:17;;;;;;;16.60;9.23;;;589.10;2432.00;;;;;;4930044;29;20035;-76
2023/09/12 06:45:43;;;;;;;25.77;9.52;;;589.30;2432.00;;;;;;4951675;29;20037;-75
2023/09/12 06:48:09;;;;;;;16.35;7.78;;;589.50;2432.00;;;;;;4945140;29;20023;-76
2023/09/12 06:50:37;;;;;;;15.60;6.22;;;589.70;2432.00;;;;;;4942868;29;20106;-77
2023/09/12 06:53:04;;;;;;;10.98;5.35;;;614.40;2432.00;;;;;;4930989;29;20027;-76
2023/09/12 06:55:30;;;;;;;9.98;5.35;;;614.60;2432.00;;;;;;4951802;29;20039;-76
2023/09/12 06:57:55;;;;;;;15.40;5.70;;;614.80;2380.80;;;;;;4946063;29;20031;-76
2023/09/12 07:00:21;;;;;;;10.48;4.88;;;;;;;;;;4941740;29;20066;-78
2023/09/12 07:02:47;;;;;;;18.15;6.05;;;615.30;2304.00;;;;;;4947484;29;20119;-75
2023/09/12 07:05:13;;;;;;;15.90;5.28;;;640.20;2252.80;;;;;;4944865;29;20110;-75
2023/09/12 07:07:39;;;;;;;13.18;5.35;;;640.10;2201.60;;;;;;4929899;29;20027;-76
2023/09/12 07:10:06;;;;;;;8.25;4.60;;;640.40;2201.60;;;;;;4947896;29;20051;-74
2023/09/12 07:12:32;;;;;;;22.50;5.82;;;640.40;2150.40;;;;;;4950150;29;20066;-76
2023/09/12 07:14:58;;;;;;;9.68;4.35;;;640.60;2124.80;;;;;;4935427;29;20027;-75
2023/09/12 07:17:24;;;;;;;12.23;4.75;;;640.70;2048.00;;;;;;4941376;29;20030;-76
2023/09/12 07:19:51;;;;;;;11.48;5.07;;;640.90;2048.00;;;;;;4947095;29;20114;-76
2023/09/12 07:22:16;;;;;;;11.35;4.93;;;665.70;2073.60;;;;;;4946250;29;20067;-75
2023/09/12 07:24:42;;;;;;;13.85;4.97;;;665.80;1996.80;;;;;;4946749;29;20501;-77
2023/09/12 07:27:08;;;;;;;12.27;4.40;;;666.20;1971.20;;;;;;4938717;29;20377;-77
2023/09/12 07:29:33;;;;;;;8.88;4.50;;;666.20;1971.20;;;;;;4946118;29;20191;-77
2023/09/12 07:31:59;;;;;;;8.32;4.72;;;666.30;1920.00;;;;;;4930256;29;20043;-77
2023/09/12 07:34:25;;;;;;;11.82;4.88;;;666.40;1894.40;;;;;;4946100;29;20019;-76
2023/09/12 07:36:51;;;;;;;9.82;4.18;;;691.40;1843.20;;;;;;4947471;29;20028;-75
2023/09/12 07:39:17;;;;;;;9.70;4.63;;;691.40;1792.00;;;;;;4948217;29;20479;-76
2023/09/12 07:41:43;;;;;;;12.30;4.47;;;691.50;1766.40;;;;;;4935075;29;20114;-77
2023/09/12 07:44:11;;;;;;;11.27;4.80;;;691.70;1792.00;;;;;;4946742;29;20470;-75
2023/09/12 07:46:37;;;;;;;13.02;4.03;;;691.90;1740.80;;;;;;4932304;29;20024;-77
2023/09/12 07:49:03;;;;;;;10.35;4.03;;;692.00;1715.20;;;;;;4948721;29;20093;-77
2023/09/12 07:51:29;;;;;;;11.02;4.32;;;692.10;1689.60;;;;;;4952374;29;20471;-78
2023/09/12 07:53:55;;;;;;;13.10;4.43;;;716.90;1689.60;;;;;;4945952;29;20436;-77
2023/09/12 07:56:20;;;;;;;8.90;4.03;;;716.90;1664.00;;;;;;4929440;29;20139;-76
2023/09/12 07:58:46;;;;;;;13.23;4.78;;;716.80;1638.40;;;;;;4946210;29;20471;-76
2023/09/12 08:01:12;;;;;;;9.90;5.10;;;717.00;1612.80;;;;;;4938455;29;20050;-77
2023/09/12 08:03:39;;;;;;;35.20;7.32;;;717.10;1612.80;;;;;;4947379;29;20031;-78
2023/09/12 08:06:05;;;;;;;36.92;7.10;;;717.30;1587.20;;;;;;4950090;29;20019;-78
2023/09/12 08:08:31;;;;;;;22.45;6.20;;;717.40;1587.20;;;;;;4924292;29;20039;-78
2023/09/12 08:10:57;;;;;;;56.97;10.80;;;742.40;1612.80;;;;;;4924226;29;20054;-78
2023/09/12 08:13:27;;;;;;;11.82;4.60;;;717.70;1536.00;;;;;;4945648;29;20019;-75
2023/09/12 08:15:53;;;;;;;30.30;5.13;;;717.70;1536.00;;;;;;4944206;29;20027;-75
2023/09/12 08:18:19;;;;;;;9.05;4.10;;;742.40;1536.00;;;;;;4941075;29;20031;-75
2023/09/12 08:20:45;;;;;;;16.40;4.20;;;742.70;1510.40;;;;;;4940222;29;20028;-75
2023/09/12 08:23:11;;;;;;;15.88;4.97;;;742.80;1510.40;;;;;;4950943;29;20047;-75
2023/09/12 08:25:36;;;;;;;18.15;4.50;;;742.80;1510.40;;;;;;4948802;29;20419;-75
2023/09/12 08:28:02;;;;;;;18.33;4.68;;;743.00;1484.80;;;;;;4946870;29;20027;-75
2023/09/12 08:30:30;;;;;;;13.63;4.07;;;743.00;1459.20;;;;;;4944073;29;20027;-75
2023/09/12 08:32:56;;;;;;;14.63;4.30;;;743.00;1459.20;;;;;;4946195;29;20073;-74
2023/09/12 08:35:22;;;;;;;15.50;3.65;;;743.30;1459.20;;;;;;4947615;29;20535;-73
2023/09/12 08:37:48;;;;;;;11.68;4.18;;;768.00;1459.20;;;;;;4923923;29;20484;-74
2023/09/12 08:40:13;;;;;;;10.02;3.55;;;768.20;1459.20;;;;;;4945144;29;20420;-73
2023/09/12 08:42:41;;;;;;;14.00;4.80;;;768.40;1459.20;;;;;;4946410;29;20035;-75
2023/09/12 08:45:15;;;;;;;11.95;4.15;;;768.30;1433.60;;;;;;4941307;29;20070;-74
2023/09/12 08:47:43;;;;;;;10.38;4.00;;;768.50;1408.00;;;;;;4945005;29;20027;-75
2023/09/12 08:50:13;;;;;;;15.35;4.38;;;768.60;1408.00;;;;;;4948442;29;20031;-76
2023/09/12 08:52:44;;;;;;;7.57;3.97;;;768.90;1408.00;;;;;;4941547;29;20028;-76
2023/09/12 08:55:10;;;;;;;12.20;4.65;;;768.90;1382.40;;;;;;4948812;29;20090;-74
2023/09/12 08:57:38;;;;;;;17.45;5.40;;;768.60;1356.80;;;;;;4946544;29;20031;-76
2023/09/12 09:00:12;;;;;;;13.75;4.65;;;793.70;1382.40;;;;;;4946797;29;20106;-74
2023/09/12 09:02:43;;;;;;;11.85;4.55;;;794.00;1382.40;;;;;;4946212;29;20118;-73
2023/09/12 09:05:10;;;;;;;17.20;5.13;;;794.10;1331.20;;;;;;4948184;29;20020;-74
2023/09/12 09:07:37;;;;;;;11.27;4.28;;;794.50;1331.20;;;;;;4946120;29;20581;-76
2023/09/12 09:10:05;;;;;;;11.50;3.78;;;794.50;1356.80;;;;;;4941132;29;20449;-75
2023/09/12 09:12:31;;;;;;;8.73;4.03;;;794.30;1331.20;;;;;;4945588;29;20035;-76
2023/09/12 09:14:57;;;;;;;16.70;4.13;;;794.30;1331.20;;;;;;4946803;29;20448;-74
2023/09/12 09:17:23;;;;;;;11.20;4.10;;;819.30;1305.60;;;;;;4940613;29;20090;-74
2023/09/12 09:19:50;;;;;;;8.25;3.72;;;819.50;1305.60;;;;;;4945175;29;20027;-74
2023/09/12 09:22:16;;;;;;;8.88;4.20;;;819.30;1280.00;;;;;;4950015;29;20031;-74
2023/09/12 09:24:41;;;;;;;13.82;3.90;;;794.50;1280.00;;;;;;4948020;29;20078;-74
2023/09/12 09:27:07;;;;;;;8.23;3.65;;;819.30;1280.00;;;;;;4946357;28;20391;-75
2023/09/12 09:29:48;;;;;;;10.00;3.60;;;819.20;1254.40;;;;;;4951704;29;20031;-73
2023/09/12 09:32:21;;;;;;;15.27;4.50;;;819.30;1280.00;;;;;;4948648;29;20106;-73
2023/09/12 09:34:47;;;;;;;11.00;4.13;;;819.60;1254.40;;;;;;4943542;29;20032;-73
2023/09/12 09:37:15;;;;;;;8.80;3.90;;;819.70;1254.40;;;;;;4942404;29;20024;-73
2023/09/12 09:39:41;;;;;;;14.38;3.78;;;819.30;1228.80;;;;;;4945582;29;20094;-72
2023/09/12 09:42:11;;;;;;;12.55;4.10;;;819.60;1254.40;;;;;;4948832;29;20035;-72
2023/09/12 09:44:37;;;;;;;7.97;3.85;;;820.00;1254.40;;;;;;4948407;29;20035;-72
2023/09/12 09:47:03;;;;;;;13.50;3.40;;;819.70;1254.40;;;;;;4948310;29;20542;-71
2023/09/12 09:49:34;;;;;;;7.90;3.90;;;819.80;1254.40;;;;;;4942798;29;20032;-73
2023/09/12 09:52:02;;;;;;;9.25;4.40;;;820.10;1228.80;;;;;;4947347;29;20020;-73
2023/09/12 09:54:28;;;;;;;13.00;4.18;;;820.10;1203.20;;;;;;4949765;29;20390;-72
2023/09/12 09:56:57;;;;;;;13.70;4.55;;;845.20;1228.80;;;;;;4944922;29;20114;-73
2023/09/12 09:59:25;;;;;;;18.92;6.07;;;845.20;1228.80;;;;;;4940490;29;20027;-73
2023/09/12 10:01:59;;;;;;;16.13;4.07;;;845.20;1228.80;;;;;;4949392;29;20039;-73
2023/09/12 10:04:27;;;;;;;10.32;4.28;;;845.40;1228.80;;;;;;4946527;29;20031;-73
2023/09/12 10:06:56;;;;;;;13.35;3.90;;;845.70;1203.20;;;;;;4951116;29;20035;-72
2023/09/12 10:09:26;;;;;;;8.52;3.60;;;845.70;1177.60;;;;;;4952954;29;20507;-75
2023/09/12 10:11:52;;;;;;;12.73;4.13;;;845.60;1177.60;;;;;;4951633;29;20063;-73
2023/09/12 10:14:20;;;;;;;7.90;3.40;;;845.70;1177.60;;;;;;4947894;29;20028;-74
2023/09/12 10:16:48;;;;;;;7.15;3.60;;;870.40;1152.00;;;;;;4944304;29;20023;-74
2023/09/12 10:19:21;;;;;;;9.25;4.15;;;870.70;1126.40;;;;;;4949663;29;20483;-72
2023/09/12 10:22:08;;;;;;;15.30;5.00;;;870.90;1177.60;;;;;;4949274;29;20027;-73
2023/09/12 10:24:35;;;;;;;9.27;3.85;;;870.90;1126.40;;;;;;4946702;29;20059;-73
2023/09/12 10:27:02;;;;;;;12.23;4.32;;;870.80;1126.40;;;;;;4951707;29;20038;-74
2023/09/12 10:29:28;;;;;;;12.85;4.18;;;870.90;1126.40;;;;;;4950254;29;20119;-74
2023/09/12 10:31:56;;;;;;;12.00;4.07;;;870.90;1152.00;;;;;;4943245;29;20395;-75
2023/09/12 10:34:25;;;;;;;10.75;4.07;;;871.00;1126.40;;;;;;4951129;29;20028;-74
2023/09/12 10:36:52;;;;;;;16.98;4.97;;;870.90;1126.40;;;;;;4944708;29;20023;-74
2023/09/12 10:39:19;;;;;;;8.45;4.40;;;870.80;1126.40;;;;;;4940563;29;20380;-75
2023/09/12 10:41:46;;;;;;;9.82;3.75;;;870.80;1126.40;;;;;;4951276;29;20031;-73
2023/09/12 10:44:19;;;;;;;5.22;3.17;;;870.60;1126.40;;;;;;4940086;29;20387;-73
2023/09/12 10:46:46;;;;;;;15.30;3.88;;;870.90;1100.80;;;;;;4940481;29;20012;-74
2023/09/12 10:49:14;;;;;;;9.07;3.92;;;871.00;1100.80;;;;;;4951201;29;20480;-74
2023/09/12 10:51:41;;;;;;;18.77;4.88;;;871.10;1126.40;;;;;;4938093;29;20028;-74
2023/09/12 10:54:08;;;;;;;12.80;4.15;;;871.30;1075.20;;;;;;4943721;29;20177;-74
2023/09/12 10:56:35;;;;;;;11.80;4.68;;;871.30;1100.80;;;;;;4948257;29;20027;-74
2023/09/12 10:59:03;;;;;;;11.27;3.85;;;871.10;1100.80;;;;;;4940049;29;20032;-73
2023/09/12 11:01:30;;;;;;;8.57;4.18;;;896.00;1100.80;;;;;;4947267;28;20023;-73
2023/09/12 11:03:57;;;;;;;10.60;4.43;;;896.20;1075.20;;;;;;4946858;29;20035;-73
2023/09/12 11:06:30;;;;;;;9.68;4.18;;;896.40;1075.20;;;;;;4938796;29;20051;-74
2023/09/12 11:09:14;;;;;;;13.10;4.82;;;896.20;1049.60;;;;;;4939660;29;20030;-73
2023/09/12 11:11:46;;;;;;;9.93;3.67;;;896.30;1049.60;;;;;;4951217;29;20023;-73
2023/09/12 11:14:13;;;;;;;12.52;4.88;;;896.40;1049.60;;;;;;4941806;29;20091;-73
2023/09/12 11:16:39;;;;;;;7.10;3.97;;;896.30;1024.00;;;;;;4942326;29;20023;-72
2023/09/12 11:19:15;;;;;;;9.23;4.13;;;896.30;1049.60;;;;;;4941784;28;20039;-73
2023/09/12 11:21:46;;;;;;;5.72;3.20;;;896.70;1049.60;;;;;;4948465;29;20027;-72
2023/09/12 11:24:12;;;;;;;12.80;3.67;;;896.30;998.40;;;;;;4945980;29;20047;-74
2023/09/12 11:27:01;;;;;;;11.32;4.07;;;896.70;1024.00;;;;;;4943773;29;20111;-74
2023/09/12 11:29:36;;;;;;;15.05;4.13;;;896.50;1024.00;;;;;;4947566;29;20489;-74
2023/09/12 11:32:05;;;;;;;10.07;3.70;;;896.10;1049.60;;;;;;4945899;29;20046;-72
2023/09/12 11:34:51;;;;;;;14.80;4.03;;;896.60;1024.00;;;;;;4949612;29;20042;-76
2023/09/12 11:37:27;;;;;;;10.63;4.13;;;896.50;1024.00;;;;;;4950199;29;20034;-73
2023/09/12 11:39:54;;;;;;;7.82;3.70;;;896.90;998.40;;;;;;4943717;29;20075;-74
2023/09/12 11:42:25;;;;;;;12.02;4.68;;;921.60;998.40;;;;;;4945483;29;20139;-75
2023/09/12 11:44:51;;;;;;;10.55;3.88;;;896.50;998.40;;;;;;4947656;29;20102;-74
2023/09/12 11:47:17;;;;;;;10.68;4.15;;;896.90;998.40;;;;;;4944205;29;20060;-72
2023/09/12 11:49:43;;;;;;;7.95;3.28;;;896.90;998.40;;;;;;4946373;28;20027;-75
2023/09/12 11:52:10;;;;;;;10.75;3.30;;;921.60;1049.60;;;;;;4951113;29;20383;-72
2023/09/12 11:54:37;;;;;;;9.55;3.78;;;921.70;998.40;;;;;;4946136;29;20086;-73
2023/09/12 11:57:03;;;;;;;7.97;3.60;;;921.60;998.40;;;;;;4931747;29;20091;-72
2023/09/12 11:59:29;;;;;;;11.05;3.58;;;896.80;972.80;;;;;;4945909;29;20024;-72
2023/09/12 12:01:56;;;;;;;10.32;5.38;;;896.70;998.40;;;;;;4945495;29;20124;-72
2023/09/12 12:04:23;;;;;;;10.95;4.22;;;921.90;998.40;;;;;;4950096;29;20067;-72
2023/09/12 12:06:50;;;;;;;16.52;4.22;;;922.20;947.20;;;;;;4944549;29;20024;-73
2023/09/12 12:09:21;;;;;;;16.90;4.72;;;922.20;972.80;;;;;;4945765;29;20042;-75